createdAt,value
2019-05-12T00:02:04.882Z,96474.17
2019-05-12T00:04:31.932Z,96479.54
2019-05-12T00:06:59.307Z,96480.50
2019-05-12T00:09:28.299Z,96492.17
2019-05-12T00:11:55.878Z,96483.30
2019-05-12T00:14:23.210Z,96493.28
2019-05-12T00:16:50.567Z,96496.58
2019-05-12T00:19:18.020Z,96496.28
2019-05-12T00:21:45.074Z,96501.48
2019-05-12T00:24:12.118Z,96510.08
2019-05-12T00:26:39.622Z,96506.80
2019-05-12T00:29:07.683Z,96504.73
2019-05-12T00:31:35.210Z,96504.99
2019-05-12T00:34:02.332Z,96510.05
2019-05-12T00:36:29.446Z,96520.17
2019-05-12T00:38:58.037Z,96518.13
2019-05-12T00:41:25.417Z,96519.09
2019-05-12T00:43:52.700Z,96525.23
2019-05-12T00:46:19.997Z,96522.42
2019-05-12T00:48:48.261Z,96518.74
2019-05-12T00:51:15.320Z,96521.42
2019-05-12T00:53:43.528Z,96522.93
2019-05-12T00:56:10.572Z,96528.13
2019-05-12T00:58:38.265Z,96532.06
2019-05-12T01:01:07.957Z,96537.77
2019-05-12T01:03:34.113Z,96543.70
2019-05-12T01:06:01.153Z,96545.55
2019-05-12T01:08:28.225Z,96550.88
2019-05-12T01:10:55.494Z,96555.17
2019-05-12T01:13:22.545Z,96554.43
2019-05-12T01:15:49.830Z,96560.23
2019-05-12T01:18:18.120Z,96565.34
2019-05-12T01:20:47.775Z,96572.73
2019-05-12T01:23:14.134Z,96569.39
2019-05-12T01:25:41.173Z,96571.44
2019-05-12T01:28:08.440Z,96569.58
2019-05-12T01:30:35.523Z,96578.61
2019-05-12T01:33:02.639Z,96584.06
2019-05-12T01:35:29.923Z,96587.22
2019-05-12T01:38:01.125Z,96597.39
2019-05-12T01:40:28.670Z,96580.98
2019-05-12T01:42:58.225Z,96598.29
2019-05-12T01:45:24.820Z,96599.41
2019-05-12T01:47:52.120Z,96598.93
2019-05-12T01:50:19.178Z,96598.45
2019-05-12T01:52:47.879Z,96604.59
2019-05-12T01:55:15.235Z,96611.81
2019-05-12T01:57:42.276Z,96603.08
2019-05-12T02:00:09.533Z,96614.28
2019-05-12T02:02:38.526Z,96613.68
2019-05-12T02:05:06.177Z,96619.00
2019-05-12T02:07:34.041Z,96629.59
2019-05-12T02:10:01.389Z,96640.33
2019-05-12T02:12:28.881Z,96628.86
2019-05-12T02:14:56.139Z,96640.64
2019-05-12T02:17:23.421Z,96640.29
2019-05-12T02:19:50.714Z,96644.91
2019-05-12T02:22:18.976Z,96654.22
2019-05-12T02:24:47.897Z,96660.83
2019-05-12T02:27:15.155Z,96658.11
2019-05-12T02:29:44.134Z,96664.50
2019-05-12T02:32:11.411Z,96667.67
2019-05-12T02:34:38.463Z,96675.45
2019-05-12T02:37:05.825Z,96673.59
2019-05-12T02:39:35.277Z,96673.45
2019-05-12T02:42:05.163Z,96680.77
2019-05-12T02:44:31.163Z,96679.44
2019-05-12T02:46:58.454Z,96683.08
2019-05-12T02:49:25.562Z,96686.97
2019-05-12T02:51:54.699Z,96698.75
2019-05-12T02:54:21.329Z,96690.27
2019-05-12T02:56:48.613Z,96695.48
2019-05-12T02:59:16.451Z,96700.58
2019-05-12T03:01:45.218Z,96702.80
2019-05-12T03:04:14.495Z,96703.63
2019-05-12T03:06:44.399Z,96702.45
2019-05-12T03:09:10.033Z,96714.83
2019-05-12T03:11:37.325Z,96713.88
2019-05-12T03:14:04.348Z,96716.34
2019-05-12T03:16:34.631Z,96728.50
2019-05-12T03:19:04.526Z,96727.42
2019-05-12T03:21:30.337Z,96736.39
2019-05-12T03:23:57.624Z,96741.23
2019-05-12T03:26:25.001Z,96743.70
2019-05-12T03:28:55.450Z,96744.65
2019-05-12T03:31:25.626Z,96749.14
2019-05-12T03:33:53.072Z,96743.12
2019-05-12T03:36:18.989Z,96756.80
2019-05-12T03:38:46.005Z,96759.88
2019-05-12T03:41:14.705Z,96767.53
2019-05-12T03:43:44.871Z,96772.73
2019-05-12T03:46:11.309Z,96780.52
2019-05-12T03:48:38.337Z,96773.80
2019-05-12T03:51:05.919Z,96780.41
2019-05-12T03:53:35.196Z,96774.16
2019-05-12T03:56:04.370Z,96778.39
2019-05-12T03:58:49.483Z,96782.98
2019-05-12T04:01:16.812Z,96793.74
2019-05-12T04:03:45.086Z,96788.20
2019-05-12T04:06:15.397Z,96791.50
2019-05-12T04:08:41.492Z,96791.38
2019-05-12T04:11:08.900Z,96788.42
2019-05-12T04:13:36.255Z,96792.22
2019-05-12T04:16:04.873Z,96799.19
2019-05-12T04:18:34.979Z,96797.66
2019-05-12T04:21:05.177Z,96801.80
2019-05-12T04:23:30.605Z,96804.52
2019-05-12T04:26:06.962Z,96807.47
2019-05-12T04:28:26.686Z,96809.59
2019-05-12T04:30:54.501Z,96812.41
2019-05-12T04:33:25.421Z,96818.07
2019-05-12T04:35:51.052Z,96819.70
2019-05-12T04:38:18.425Z,96824.89
2019-05-12T04:40:45.690Z,96826.41
2019-05-12T04:43:14.658Z,96831.01
2019-05-12T04:45:44.787Z,96831.23
2019-05-12T04:48:15.004Z,96834.08
2019-05-12T04:50:40.814Z,96838.32
2019-05-12T04:53:08.187Z,96842.80
2019-05-12T04:55:35.930Z,96845.86
2019-05-12T04:58:04.465Z,96849.78
2019-05-12T05:00:34.815Z,96853.77
2019-05-12T05:03:01.299Z,96859.98
2019-05-12T05:05:28.345Z,96866.35
2019-05-12T05:07:56.806Z,96870.13
2019-05-12T05:10:24.913Z,96873.20
2019-05-12T05:12:54.120Z,96876.14
2019-05-12T05:15:24.718Z,96879.91
2019-05-12T05:17:50.488Z,96890.66
2019-05-12T05:20:17.519Z,96896.66
2019-05-12T05:22:44.570Z,96901.61
2019-05-12T05:25:14.236Z,96905.25
2019-05-12T05:27:40.973Z,96907.03
2019-05-12T05:30:08.329Z,96915.35
2019-05-12T05:32:35.702Z,96919.23
2019-05-12T05:35:03.953Z,96926.77
2019-05-12T05:37:39.617Z,96932.14
2019-05-12T05:40:00.562Z,96936.61
2019-05-12T05:42:32.680Z,96933.09
2019-05-12T05:44:56.716Z,96939.70
2019-05-12T05:47:25.482Z,96944.84
2019-05-12T05:49:53.996Z,96945.22
2019-05-12T05:52:24.641Z,96949.56
2019-05-12T05:54:53.140Z,96948.64
2019-05-12T05:57:20.061Z,96949.50
2019-05-12T05:59:48.515Z,96957.77
2019-05-12T06:02:15.821Z,96953.73
2019-05-12T06:04:45.497Z,96957.34
2019-05-12T06:07:14.228Z,96956.59
2019-05-12T06:09:43.151Z,96960.34
2019-05-12T06:12:10.174Z,96957.65
2019-05-12T06:14:46.666Z,96967.32
2019-05-12T06:17:21.071Z,96972.27
2019-05-12T06:19:48.423Z,96977.11
2019-05-12T06:22:18.393Z,96976.16
2019-05-12T06:24:49.068Z,96980.59
2019-05-12T06:27:20.317Z,96989.31
2019-05-12T06:29:43.801Z,96998.19
2019-05-12T06:32:14.342Z,96995.56
2019-05-12T06:34:43.510Z,97000.80
2019-05-12T06:37:17.106Z,96998.37
2019-05-12T06:39:51.051Z,96995.28
2019-05-12T06:42:24.944Z,97002.52
2019-05-12T06:47:45.297Z,96998.20
2019-05-12T06:50:16.415Z,97009.35
2019-05-12T06:52:53.194Z,97003.67
2019-05-12T06:55:20.600Z,97004.52
2019-05-12T06:57:50.143Z,97013.09
2019-05-12T07:00:22.372Z,97008.08
2019-05-12T07:02:52.274Z,97015.15
2019-05-12T07:05:15.341Z,97015.09
2019-05-12T07:07:45.940Z,97022.53
2019-05-12T07:10:19.749Z,97019.88
2019-05-12T07:12:57.660Z,97025.38
2019-05-12T07:15:09.315Z,97033.27
2019-05-12T07:17:47.717Z,97033.97
2019-05-12T07:20:14.573Z,97030.68
2019-05-12T07:22:45.888Z,97037.46
2019-05-12T07:25:10.165Z,97041.89
2019-05-12T07:27:39.747Z,97043.92
2019-05-12T07:30:05.966Z,97038.75
2019-05-12T07:32:34.362Z,97050.71
2019-05-12T07:35:07.255Z,97050.48
2019-05-12T07:37:34.612Z,97056.12
2019-05-12T07:40:01.663Z,97054.67
2019-05-12T07:42:31.440Z,97056.63
2019-05-12T07:44:58.321Z,97059.25
2019-05-12T07:47:29.316Z,97054.67
2019-05-12T07:49:54.561Z,97066.28
2019-05-12T07:52:24.123Z,97070.50
2019-05-12T07:54:53.710Z,97058.16
2019-05-12T07:57:19.432Z,97068.04
2019-05-12T07:59:46.455Z,97072.20
2019-05-12T08:02:14.356Z,97084.28
2019-05-12T08:04:43.854Z,97090.00
2019-05-12T08:07:10.762Z,97100.73
2019-05-12T08:09:37.819Z,97097.32
2019-05-12T08:12:09.847Z,97098.94
2019-05-12T08:14:33.894Z,97091.53
2019-05-12T08:17:19.454Z,97097.02
2019-05-12T08:22:34.538Z,97103.00
2019-05-12T08:25:04.152Z,97095.34
2019-05-12T08:27:39.133Z,97093.62
2019-05-12T08:32:48.107Z,97102.41
2019-05-12T08:35:25.483Z,97112.45
2019-05-12T08:37:58.628Z,97113.59
2019-05-12T08:43:16.802Z,97112.92
2019-05-12T08:45:44.303Z,97114.28
2019-05-12T08:48:16.945Z,97114.11
2019-05-12T08:50:42.835Z,97114.91
2019-05-12T08:53:12.285Z,97119.14
2019-05-12T08:55:44.478Z,97127.08
2019-05-12T08:58:26.508Z,97122.41
2019-05-12T09:00:46.586Z,97123.62
2019-05-12T09:03:09.283Z,97130.31
2019-05-12T09:05:38.479Z,97129.31
2019-05-12T09:08:05.068Z,97133.87
2019-05-12T09:10:34.381Z,97133.59
2019-05-12T09:13:03.687Z,97144.77
2019-05-12T09:15:29.956Z,97145.18
2019-05-12T09:17:57.123Z,97157.66
2019-05-12T09:20:24.357Z,97154.55
2019-05-12T09:23:00.561Z,97159.19
2019-05-12T09:25:25.881Z,97155.20
2019-05-12T09:27:54.274Z,97155.20
2019-05-12T09:30:21.329Z,97164.82
2019-05-12T09:32:50.329Z,97162.01
2019-05-12T09:35:17.438Z,97171.30
2019-05-12T09:37:44.482Z,97176.50
2019-05-12T09:40:14.699Z,97179.88
2019-05-12T09:45:17.759Z,97175.94
2019-05-12T09:47:45.072Z,97189.30
2019-05-12T09:50:16.081Z,97182.97
2019-05-12T09:52:44.082Z,97194.76
2019-05-12T09:55:11.451Z,97191.95
2019-05-12T09:57:45.041Z,97199.24
2019-05-12T10:00:13.706Z,97203.16
2019-05-12T10:02:43.615Z,97205.75
2019-05-12T10:05:19.956Z,97202.39
2019-05-12T10:07:48.206Z,97211.20
2019-05-12T10:10:18.362Z,97206.81
2019-05-12T10:18:11.066Z,97216.05
2019-05-12T10:20:39.675Z,97214.84
2019-05-12T10:23:18.233Z,97213.95
2019-05-12T10:25:39.917Z,97201.33
2019-05-12T10:28:13.900Z,97210.78
2019-05-12T10:30:38.035Z,97222.00
2019-05-12T10:33:05.438Z,97214.14
2019-05-12T10:35:34.963Z,97228.30
2019-05-12T10:38:07.696Z,97217.05
2019-05-12T10:40:30.512Z,97221.75
2019-05-12T10:42:57.827Z,97206.00
2019-05-12T10:45:26.326Z,97207.61
2019-05-12T10:47:53.681Z,97204.87
2019-05-12T10:50:23.301Z,97211.31
2019-05-12T10:55:27.521Z,97220.44
2019-05-12T10:58:01.593Z,97238.94
2019-05-12T11:00:25.307Z,97224.31
2019-05-12T11:02:53.980Z,97225.90
2019-05-12T11:05:23.300Z,97230.77
2019-05-12T11:07:50.137Z,97238.83
2019-05-12T11:10:29.866Z,97227.94
2019-05-12T11:12:59.212Z,97216.63
2019-05-12T11:15:30.739Z,97216.59
2019-05-12T11:17:58.091Z,97217.43
2019-05-12T11:20:41.427Z,97220.98
2019-05-12T11:23:08.761Z,97219.16
2019-05-12T11:25:36.116Z,97220.61
2019-05-12T11:28:04.182Z,97224.97
2019-05-12T11:30:47.413Z,97227.28
2019-05-12T11:33:14.765Z,97227.91
2019-05-12T11:35:45.028Z,97219.15
2019-05-12T11:38:13.480Z,97212.81
2019-05-12T11:40:40.965Z,97216.30
2019-05-12T11:43:08.613Z,97223.91
2019-05-12T11:45:35.949Z,97232.58
2019-05-12T11:48:10.240Z,97229.22
2019-05-12T11:50:32.012Z,97223.81
2019-05-12T11:52:59.343Z,97223.15
2019-05-12T11:55:31.343Z,97229.61
2019-05-12T12:03:38.173Z,97243.84
2019-05-12T12:06:05.467Z,97245.08
2019-05-12T12:08:37.105Z,97245.62
2019-05-12T12:11:03.845Z,97252.14
2019-05-12T12:13:30.914Z,97248.17
2019-05-12T12:16:00.704Z,97251.81
2019-05-12T12:18:28.327Z,97246.33
2019-05-12T12:21:02.867Z,97239.70
2019-05-12T12:23:24.649Z,97244.81
2019-05-12T12:25:53.447Z,97269.62
2019-05-12T12:28:21.096Z,97266.44
2019-05-12T12:30:52.560Z,97268.55
2019-05-12T12:33:17.206Z,97264.60
2019-05-12T12:35:44.619Z,97276.36
2019-05-12T12:38:14.100Z,97276.00
2019-05-12T12:40:40.946Z,97278.33
2019-05-12T12:43:08.026Z,97275.54
2019-05-12T12:45:39.898Z,97271.34
2019-05-12T12:48:04.095Z,97268.65
2019-05-12T12:50:31.128Z,97275.27
2019-05-12T12:52:58.521Z,97264.42
2019-05-12T12:55:25.879Z,97274.44
2019-05-12T12:57:53.231Z,97276.56
2019-05-12T13:00:29.713Z,97277.90
2019-05-12T13:02:50.345Z,97280.19
2019-05-12T13:05:17.404Z,97277.42
2019-05-12T13:07:44.445Z,97270.55
2019-05-12T13:10:14.041Z,97273.89
2019-05-12T13:12:40.637Z,97268.53
2019-05-12T13:15:08.011Z,97266.84
2019-05-12T13:17:41.543Z,97272.87
2019-05-12T13:20:05.122Z,97262.69
2019-05-12T13:22:33.726Z,97273.66
2019-05-12T13:25:04.429Z,97267.53
2019-05-12T13:27:30.424Z,97289.70
2019-05-12T13:29:57.756Z,97279.82
2019-05-12T13:32:32.320Z,97277.16
2019-05-12T13:34:53.901Z,97282.83
2019-05-12T13:37:23.081Z,97284.91
2019-05-12T13:39:56.801Z,97287.20
2019-05-12T13:43:33.909Z,97286.28
2019-05-12T13:46:00.435Z,97290.13
2019-05-12T13:48:27.800Z,97306.27
2019-05-12T13:51:10.292Z,97301.34
2019-05-12T13:53:24.366Z,97297.89
2019-05-12T13:55:53.757Z,97291.62
2019-05-12T13:58:20.994Z,97289.98
2019-05-12T14:01:08.012Z,97286.72
2019-05-12T14:03:16.782Z,97302.16
2019-05-12T14:05:50.392Z,97299.99
2019-05-12T14:08:14.583Z,97307.87
2019-05-12T14:10:44.722Z,97313.95
2019-05-12T14:13:10.980Z,97311.14
2019-05-12T14:15:38.350Z,97314.89
2019-05-12T14:18:10.311Z,97306.42
2019-05-12T14:20:34.609Z,97295.89
2019-05-12T14:23:03.917Z,97297.34
2019-05-12T14:25:33.029Z,97305.43
2019-05-12T14:28:05.380Z,97305.94
2019-05-12T14:30:29.555Z,97307.80
2019-05-12T14:32:59.122Z,97303.50
2019-05-12T14:35:26.067Z,97306.42
2019-05-12T14:37:54.154Z,97306.33
2019-05-12T14:40:29.264Z,97308.47
2019-05-12T14:42:49.999Z,97312.72
2019-05-12T14:45:19.418Z,97303.53
2019-05-12T14:47:46.304Z,97312.30
2019-05-12T14:50:14.026Z,97304.69
2019-05-12T14:52:43.732Z,97314.30
2019-05-12T14:55:10.417Z,97310.48
2019-05-12T14:57:39.347Z,97306.25
2019-05-12T15:00:11.141Z,97316.27
2019-05-12T15:02:35.209Z,97321.38
2019-05-12T15:05:06.495Z,97323.95
2019-05-12T15:07:31.245Z,97319.13
2019-05-12T15:10:02.256Z,97317.08
2019-05-12T15:12:27.031Z,97315.79
2019-05-12T15:15:18.491Z,97315.07
2019-05-12T15:17:39.629Z,97309.03
2019-05-12T15:20:10.621Z,97309.89
2019-05-12T15:22:36.122Z,97307.20
2019-05-12T15:25:05.423Z,97309.52
2019-05-12T15:27:42.378Z,97314.41
2019-05-12T15:30:01.102Z,97311.81
2019-05-12T15:32:28.807Z,97326.33
2019-05-12T15:34:56.316Z,97317.80
2019-05-12T15:37:23.869Z,97311.38
2019-05-12T15:39:53.528Z,97320.21
2019-05-12T15:42:20.193Z,97328.27
2019-05-12T15:44:48.462Z,97329.72
2019-05-12T15:47:15.817Z,97317.79
2019-05-12T15:49:44.230Z,97329.58
2019-05-12T15:52:14.034Z,97326.82
2019-05-12T15:54:45.699Z,97331.45
2019-05-12T15:57:09.248Z,97333.69
2019-05-12T15:59:36.626Z,97330.84
2019-05-12T16:02:12.417Z,97330.06
2019-05-12T16:04:42.706Z,97335.61
2019-05-12T16:07:04.109Z,97345.12
2019-05-12T16:09:31.540Z,97340.06
2019-05-12T16:11:58.892Z,97331.86
2019-05-12T16:14:30.345Z,97338.34
2019-05-12T16:16:54.671Z,97346.98
2019-05-12T16:19:23.456Z,97345.52
2019-05-12T16:21:50.754Z,97343.34
2019-05-12T16:24:17.791Z,97331.91
2019-05-12T16:26:51.701Z,97342.63
2019-05-12T16:29:13.929Z,97345.77
2019-05-12T16:31:47.887Z,97345.23
2019-05-12T16:34:10.435Z,97345.58
2019-05-12T16:36:41.170Z,97351.23
2019-05-12T16:39:07.784Z,97346.05
2019-05-12T16:41:35.243Z,97348.00
2019-05-12T16:44:07.833Z,97353.06
2019-05-12T16:46:31.040Z,97346.83
2019-05-12T16:49:08.498Z,97340.58
2019-05-12T16:59:21.947Z,97346.41
2019-05-12T17:01:51.201Z,97358.80
2019-05-12T17:07:18.896Z,97359.03
2019-05-12T17:09:45.382Z,97359.62
2019-05-12T17:12:17.129Z,97364.97
2019-05-12T17:14:50.054Z,97363.28
2019-05-12T17:17:21.515Z,97371.45
2019-05-12T17:19:54.102Z,97368.31
2019-05-12T17:27:51.642Z,97379.48
2019-05-12T17:30:23.853Z,97380.38
2019-05-12T17:33:00.708Z,97382.20
2019-05-12T17:35:34.182Z,97379.86
2019-05-12T17:38:05.640Z,97379.62
2019-05-12T17:40:58.901Z,97386.41
2019-05-12T17:43:20.233Z,97383.84
2019-05-12T17:48:58.748Z,97390.44
2019-05-12T17:51:48.088Z,97397.49
2019-05-12T17:54:24.322Z,97404.14
2019-05-12T17:59:41.949Z,97408.59
2019-05-12T18:02:16.685Z,97413.20
2019-05-12T18:04:43.782Z,97411.02
2019-05-12T18:07:14.422Z,97418.41
2019-05-12T18:09:45.106Z,97422.52
2019-05-12T18:14:54.533Z,97432.87
2019-05-12T18:17:24.037Z,97435.94
2019-05-12T18:22:47.143Z,97436.84
2019-05-12T18:25:30.360Z,97442.86
2019-05-12T18:30:34.883Z,97452.52
2019-05-12T18:35:34.557Z,97453.83
2019-05-12T18:38:07.980Z,97458.44
2019-05-12T18:40:35.081Z,97459.75
2019-05-12T18:53:43.836Z,97475.20
2019-05-12T18:56:29.960Z,97470.20
2019-05-12T19:01:40.578Z,97471.41
2019-05-12T19:04:07.901Z,97472.84
2019-05-12T19:06:38.430Z,97471.96
2019-05-12T19:11:46.368Z,97476.91
2019-05-12T19:19:39.780Z,97480.62
2019-05-12T19:22:09.756Z,97490.30
2019-05-12T19:24:36.432Z,97493.88
2019-05-12T19:27:16.636Z,97501.27
2019-05-12T19:29:48.329Z,97493.11
2019-05-12T19:32:28.102Z,97502.39
2019-05-12T19:37:45.331Z,97499.23
2019-05-12T19:40:18.420Z,97503.16
2019-05-12T19:45:33.671Z,97515.86
2019-05-12T19:48:00.228Z,97517.89
2019-05-12T19:50:28.423Z,97518.86
2019-05-12T19:52:55.749Z,97523.13
2019-05-12T19:55:24.111Z,97528.00
2019-05-12T19:57:51.242Z,97531.33
2019-05-12T20:00:18.516Z,97532.98
2019-05-12T20:02:45.867Z,97532.03
2019-05-12T20:05:17.219Z,97529.42
2019-05-12T20:07:41.648Z,97534.50
2019-05-12T20:10:12.285Z,97532.70
2019-05-12T20:15:30.215Z,97535.88
2019-05-12T20:17:58.288Z,97535.05
2019-05-12T20:20:35.225Z,97541.69
2019-05-12T20:22:54.432Z,97540.16
2019-05-12T20:25:23.488Z,97544.66
2019-05-12T20:27:55.843Z,97547.64
2019-05-12T20:30:21.119Z,97547.17
2019-05-12T20:32:48.294Z,97543.52
2019-05-12T20:35:15.396Z,97544.34
2019-05-12T20:37:44.241Z,97555.59
2019-05-12T20:40:13.420Z,97552.04
2019-05-12T20:42:44.215Z,97551.69
2019-05-12T20:45:08.648Z,97550.50
2019-05-12T20:47:39.152Z,97557.62
2019-05-12T20:50:04.514Z,97553.00
2019-05-12T20:52:31.534Z,97558.81
2019-05-12T20:54:59.941Z,97559.76
2019-05-12T20:57:27.147Z,97558.34
2019-05-12T20:59:58.299Z,97556.33
2019-05-12T21:02:23.470Z,97558.00
2019-05-12T21:05:00.583Z,97557.88
2019-05-12T21:07:21.951Z,97566.77
2019-05-12T21:09:48.294Z,97565.14
2019-05-12T21:12:15.341Z,97568.11
2019-05-12T21:14:51.166Z,97558.40
2019-05-12T21:17:15.782Z,97566.92
2019-05-12T21:19:41.544Z,97567.63
2019-05-12T21:22:09.170Z,97563.61
2019-05-12T21:24:39.319Z,97564.91
2019-05-12T21:27:09.418Z,97560.52
2019-05-12T21:29:34.757Z,97558.98
2019-05-12T21:32:02.975Z,97569.51
2019-05-12T21:34:30.762Z,97569.98
2019-05-12T21:36:58.964Z,97572.34
2019-05-12T21:39:26.835Z,97578.48
2019-05-12T21:41:54.888Z,97577.92
2019-05-12T21:44:24.581Z,97576.27
2019-05-12T21:46:58.777Z,97582.17
2019-05-12T21:49:20.782Z,97578.72
2019-05-12T21:51:50.479Z,97576.70
2019-05-12T21:54:16.557Z,97578.24
2019-05-12T21:56:49.170Z,97573.38
2019-05-12T21:59:15.518Z,97578.81
2019-05-12T22:01:43.389Z,97578.20
2019-05-12T22:04:10.395Z,97580.09
2019-05-12T22:06:37.441Z,97579.96
2019-05-12T22:09:04.710Z,97582.91
2019-05-12T22:11:34.391Z,97578.04
2019-05-12T22:14:00.833Z,97581.11
2019-05-12T22:16:29.621Z,97585.35
2019-05-12T22:18:59.381Z,97593.73
2019-05-12T22:21:25.962Z,97592.08
2019-05-12T22:23:54.208Z,97598.47
2019-05-12T22:26:22.007Z,97600.48
2019-05-12T22:28:51.042Z,97593.16
2019-05-12T22:31:18.047Z,97591.74
2019-05-12T22:33:51.629Z,97597.89
2019-05-12T22:36:25.771Z,97602.02
2019-05-12T22:38:44.404Z,97601.55
2019-05-12T22:41:13.543Z,97606.97
2019-05-12T22:43:43.482Z,97609.46
2019-05-12T22:46:09.997Z,97610.98
2019-05-12T22:48:40.481Z,97608.97
2019-05-12T22:51:14.332Z,97611.78
2019-05-12T22:53:34.794Z,97616.98
2019-05-12T22:56:11.643Z,97619.95
2019-05-12T22:58:30.888Z,97616.52
2019-05-12T23:01:00.988Z,97617.23
2019-05-12T23:03:26.918Z,97629.30
2019-05-12T23:06:00.066Z,97627.17
2019-05-12T23:08:24.667Z,97626.81
2019-05-12T23:10:53.973Z,97623.24
2019-05-12T23:13:23.798Z,97624.40
2019-05-12T23:15:51.628Z,97622.02
2019-05-12T23:18:19.526Z,97627.30
2019-05-12T23:20:48.863Z,97623.62
2019-05-12T23:23:18.781Z,97624.08
2019-05-12T23:25:44.634Z,97621.59
2019-05-12T23:28:11.678Z,97623.36
2019-05-12T23:30:43.782Z,97624.30
2019-05-12T23:33:07.442Z,97627.84
2019-05-12T23:35:39.485Z,97621.81
2019-05-12T23:38:04.419Z,97620.01
2019-05-12T23:40:34.264Z,97616.33
2019-05-12T23:43:00.668Z,97615.13
2019-05-12T23:45:27.698Z,97617.73
2019-05-12T23:47:54.744Z,97619.03
2019-05-12T23:50:24.148Z,97616.11
2019-05-12T23:52:51.038Z,97618.56
2019-05-12T23:55:18.310Z,97616.33
2019-05-12T23:57:45.377Z,97610.08
